Terminal Aerodrome Forecast
Issued by NWS

Home | Current Version | Previous Version | Text Only | Print | Product List | Glossary On
Versions: 1 2 3 4 5 6 7 8 9 10 11 12 13 14 15 16 17 18 19 20 21 22 23 24 25 26 27 28
000
FTUS45 KGJT 211227 AAA
TAFASE
TAF AMD
KASE 211227Z 2112/2212 34003KT P6SM OVC014
     FM211400 31005KT P6SM FEW045 SCT090
     FM220200 24005KT P6SM FEW090 FEW200
     FM220800 18004KT P6SM FEW150 FEW200=

USA.gov is the U.S. government's official web portal to all federal, state and local government web resources and services.